sensor_id;sensor_type;location;lat;lon;timestamp;temperature;humidity
76537;DHT22;65381;51.254;15.592;2023-04-03T00:01:25;-0.50;72.00
76537;DHT22;65381;51.254;15.592;2023-04-03T00:03:53;-0.60;71.90
76537;DHT22;65381;51.254;15.592;2023-04-03T00:06:23;-0.60;71.90
76537;DHT22;65381;51.254;15.592;2023-04-03T00:08:51;-0.60;71.90
76537;DHT22;65381;51.254;15.592;2023-04-03T00:11:19;-0.70;71.90
76537;DHT22;65381;51.254;15.592;2023-04-03T00:13:48;-0.70;71.90
76537;DHT22;65381;51.254;15.592;2023-04-03T00:16:16;-0.70;72.00
76537;DHT22;65381;51.254;15.592;2023-04-03T00:18:45;-0.70;72.10
76537;DHT22;65381;51.254;15.592;2023-04-03T00:21:13;-0.70;72.20
76537;DHT22;65381;51.254;15.592;2023-04-03T00:23:43;-0.70;72.30
76537;DHT22;65381;51.254;15.592;2023-04-03T00:26:11;-0.60;72.20
76537;DHT22;65381;51.254;15.592;2023-04-03T00:28:40;-0.60;72.30
76537;DHT22;65381;51.254;15.592;2023-04-03T00:31:08;-0.50;72.20
76537;DHT22;65381;51.254;15.592;2023-04-03T00:33:37;-0.40;72.20
76537;DHT22;65381;51.254;15.592;2023-04-03T00:36:06;-0.40;72.10
76537;DHT22;65381;51.254;15.592;2023-04-03T00:38:35;-0.40;72.10
76537;DHT22;65381;51.254;15.592;2023-04-03T00:41:03;-0.40;72.10
76537;DHT22;65381;51.254;15.592;2023-04-03T00:43:32;-0.40;72.10
76537;DHT22;65381;51.254;15.592;2023-04-03T00:46:00;-0.30;72.10
76537;DHT22;65381;51.254;15.592;2023-04-03T00:48:42;-0.30;72.10
76537;DHT22;65381;51.254;15.592;2023-04-03T00:51:17;-0.30;72.10
76537;DHT22;65381;51.254;15.592;2023-04-03T00:53:50;-0.20;72.10
76537;DHT22;65381;51.254;15.592;2023-04-03T00:56:21;-0.20;72.10
76537;DHT22;65381;51.254;15.592;2023-04-03T00:58:57;-0.20;72.00
76537;DHT22;65381;51.254;15.592;2023-04-03T01:01:28;-0.20;72.00
76537;DHT22;65381;51.254;15.592;2023-04-03T01:03:59;-0.20;72.00
76537;DHT22;65381;51.254;15.592;2023-04-03T01:06:32;-0.20;72.10
76537;DHT22;65381;51.254;15.592;2023-04-03T01:09:07;-0.20;72.10
76537;DHT22;65381;51.254;15.592;2023-04-03T01:11:35;-0.20;72.10
76537;DHT22;65381;51.254;15.592;2023-04-03T01:14:03;-0.20;72.10
76537;DHT22;65381;51.254;15.592;2023-04-03T01:16:33;-0.20;72.10
76537;DHT22;65381;51.254;15.592;2023-04-03T01:19:03;-0.20;72.10
76537;DHT22;65381;51.254;15.592;2023-04-03T01:24:37;-0.20;72.10
76537;DHT22;65381;51.254;15.592;2023-04-03T01:27:11;-0.20;72.00
76537;DHT22;65381;51.254;15.592;2023-04-03T01:29:40;-0.20;72.10
76537;DHT22;65381;51.254;15.592;2023-04-03T01:32:09;-0.20;72.10
76537;DHT22;65381;51.254;15.592;2023-04-03T01:34:37;-0.20;72.00
76537;DHT22;65381;51.254;15.592;2023-04-03T01:37:05;-0.30;72.10
76537;DHT22;65381;51.254;15.592;2023-04-03T01:39:33;-0.30;72.10
76537;DHT22;65381;51.254;15.592;2023-04-03T01:42:01;-0.40;72.00
76537;DHT22;65381;51.254;15.592;2023-04-03T01:44:34;-0.50;71.90
76537;DHT22;65381;51.254;15.592;2023-04-03T01:47:01;-0.60;71.90
76537;DHT22;65381;51.254;15.592;2023-04-03T01:49:30;-0.70;71.90
76537;DHT22;65381;51.254;15.592;2023-04-03T01:51:58;-0.90;72.00
76537;DHT22;65381;51.254;15.592;2023-04-03T01:54:26;-1.00;72.00
76537;DHT22;65381;51.254;15.592;2023-04-03T01:56:54;-1.10;72.00
76537;DHT22;65381;51.254;15.592;2023-04-03T01:59:23;-1.10;72.10
76537;DHT22;65381;51.254;15.592;2023-04-03T02:01:51;-1.30;72.00
76537;DHT22;65381;51.254;15.592;2023-04-03T02:04:20;-1.40;72.00
76537;DHT22;65381;51.254;15.592;2023-04-03T02:06:48;-1.50;72.00
76537;DHT22;65381;51.254;15.592;2023-04-03T02:09:16;-1.50;72.00
76537;DHT22;65381;51.254;15.592;2023-04-03T02:11:44;-1.60;72.10
76537;DHT22;65381;51.254;15.592;2023-04-03T02:14:13;-1.70;72.10
76537;DHT22;65381;51.254;15.592;2023-04-03T02:16:42;-1.70;72.20
76537;DHT22;65381;51.254;15.592;2023-04-03T02:19:10;-1.80;72.10
76537;DHT22;65381;51.254;15.592;2023-04-03T02:21:38;-1.90;72.10
76537;DHT22;65381;51.254;15.592;2023-04-03T02:24:08;-1.90;72.20
76537;DHT22;65381;51.254;15.592;2023-04-03T02:26:35;-2.00;72.20
76537;DHT22;65381;51.254;15.592;2023-04-03T02:29:05;-2.00;72.20
76537;DHT22;65381;51.254;15.592;2023-04-03T02:31:34;-2.10;72.30
76537;DHT22;65381;51.254;15.592;2023-04-03T02:34:05;-2.10;72.30
76537;DHT22;65381;51.254;15.592;2023-04-03T02:36:34;-2.10;72.40
76537;DHT22;65381;51.254;15.592;2023-04-03T02:39:06;-2.10;72.30
76537;DHT22;65381;51.254;15.592;2023-04-03T02:41:35;-2.10;72.30
76537;DHT22;65381;51.254;15.592;2023-04-03T02:44:10;-2.20;72.30
76537;DHT22;65381;51.254;15.592;2023-04-03T02:46:38;-2.20;72.50
76537;DHT22;65381;51.254;15.592;2023-04-03T02:49:07;-2.20;72.40
76537;DHT22;65381;51.254;15.592;2023-04-03T02:51:35;-2.30;72.30
76537;DHT22;65381;51.254;15.592;2023-04-03T02:54:04;-2.30;72.30
76537;DHT22;65381;51.254;15.592;2023-04-03T02:56:35;-2.30;72.40
76537;DHT22;65381;51.254;15.592;2023-04-03T02:59:04;-2.30;72.40
76537;DHT22;65381;51.254;15.592;2023-04-03T03:01:35;-2.30;72.30
76537;DHT22;65381;51.254;15.592;2023-04-03T03:04:04;-2.40;72.30
76537;DHT22;65381;51.254;15.592;2023-04-03T03:06:32;-2.40;72.40
76537;DHT22;65381;51.254;15.592;2023-04-03T03:09:00;-2.40;72.40
76537;DHT22;65381;51.254;15.592;2023-04-03T03:11:29;-2.50;72.30
76537;DHT22;65381;51.254;15.592;2023-04-03T03:13:57;-2.50;72.40
76537;DHT22;65381;51.254;15.592;2023-04-03T03:16:25;-2.50;72.30
76537;DHT22;65381;51.254;15.592;2023-04-03T03:18:54;-2.60;72.40
76537;DHT22;65381;51.254;15.592;2023-04-03T03:21:24;-2.60;72.50
76537;DHT22;65381;51.254;15.592;2023-04-03T03:23:52;-2.60;72.50
76537;DHT22;65381;51.254;15.592;2023-04-03T03:26:21;-2.70;72.50
76537;DHT22;65381;51.254;15.592;2023-04-03T03:28:49;-2.70;72.60
76537;DHT22;65381;51.254;15.592;2023-04-03T03:31:17;-2.70;72.60
76537;DHT22;65381;51.254;15.592;2023-04-03T03:33:45;-2.70;72.60
76537;DHT22;65381;51.254;15.592;2023-04-03T03:36:13;-2.70;72.70
76537;DHT22;65381;51.254;15.592;2023-04-03T03:38:42;-2.70;72.60
76537;DHT22;65381;51.254;15.592;2023-04-03T03:41:10;-2.70;72.70
76537;DHT22;65381;51.254;15.592;2023-04-03T03:43:39;-2.70;72.70
76537;DHT22;65381;51.254;15.592;2023-04-03T03:46:08;-2.70;72.70
76537;DHT22;65381;51.254;15.592;2023-04-03T03:48:36;-2.70;72.70
76537;DHT22;65381;51.254;15.592;2023-04-03T03:51:04;-2.70;72.80
76537;DHT22;65381;51.254;15.592;2023-04-03T03:53:36;-2.70;72.70
76537;DHT22;65381;51.254;15.592;2023-04-03T03:56:07;-2.70;72.60
76537;DHT22;65381;51.254;15.592;2023-04-03T03:58:37;-2.70;72.70
76537;DHT22;65381;51.254;15.592;2023-04-03T04:01:06;-2.80;72.70
76537;DHT22;65381;51.254;15.592;2023-04-03T04:03:40;-2.80;72.70
76537;DHT22;65381;51.254;15.592;2023-04-03T04:06:13;-2.80;72.70
76537;DHT22;65381;51.254;15.592;2023-04-03T04:08:42;-2.80;72.80
76537;DHT22;65381;51.254;15.592;2023-04-03T04:11:12;-2.80;72.80
76537;DHT22;65381;51.254;15.592;2023-04-03T04:13:41;-2.80;72.90
76537;DHT22;65381;51.254;15.592;2023-04-03T04:16:11;-2.90;72.80
76537;DHT22;65381;51.254;15.592;2023-04-03T04:18:39;-2.90;72.80
76537;DHT22;65381;51.254;15.592;2023-04-03T04:21:07;-2.90;72.90
76537;DHT22;65381;51.254;15.592;2023-04-03T04:23:37;-2.90;73.00
76537;DHT22;65381;51.254;15.592;2023-04-03T04:26:05;-2.90;73.00
76537;DHT22;65381;51.254;15.592;2023-04-03T04:28:36;-2.90;73.00
76537;DHT22;65381;51.254;15.592;2023-04-03T04:31:05;-2.90;73.00
76537;DHT22;65381;51.254;15.592;2023-04-03T04:33:34;-2.90;73.00
76537;DHT22;65381;51.254;15.592;2023-04-03T04:36:04;-2.90;73.10
76537;DHT22;65381;51.254;15.592;2023-04-03T04:38:33;-2.80;73.10
76537;DHT22;65381;51.254;15.592;2023-04-03T04:41:01;-2.80;73.10
76537;DHT22;65381;51.254;15.592;2023-04-03T04:43:29;-2.80;73.20
76537;DHT22;65381;51.254;15.592;2023-04-03T04:46:05;-2.80;73.20
76537;DHT22;65381;51.254;15.592;2023-04-03T04:48:38;-2.70;73.20
76537;DHT22;65381;51.254;15.592;2023-04-03T04:51:08;-2.70;73.30
76537;DHT22;65381;51.254;15.592;2023-04-03T04:53:38;-2.70;73.30
76537;DHT22;65381;51.254;15.592;2023-04-03T04:56:08;-2.70;73.30
76537;DHT22;65381;51.254;15.592;2023-04-03T04:58:38;-2.60;73.30
76537;DHT22;65381;51.254;15.592;2023-04-03T05:01:09;-2.60;73.30
76537;DHT22;65381;51.254;15.592;2023-04-03T05:03:46;-2.50;73.40
76537;DHT22;65381;51.254;15.592;2023-04-03T05:06:16;-2.50;73.50
76537;DHT22;65381;51.254;15.592;2023-04-03T05:08:44;-2.40;73.50
76537;DHT22;65381;51.254;15.592;2023-04-03T05:11:13;-2.30;73.60
76537;DHT22;65381;51.254;15.592;2023-04-03T05:13:43;-2.30;73.50
76537;DHT22;65381;51.254;15.592;2023-04-03T05:16:11;-2.20;73.60
76537;DHT22;65381;51.254;15.592;2023-04-03T05:18:39;-2.10;73.60
76537;DHT22;65381;51.254;15.592;2023-04-03T05:21:11;-2.10;73.70
76537;DHT22;65381;51.254;15.592;2023-04-03T05:23:40;-1.90;74.00
76537;DHT22;65381;51.254;15.592;2023-04-03T05:26:08;-1.50;74.60
76537;DHT22;65381;51.254;15.592;2023-04-03T05:28:38;-0.80;76.10
76537;DHT22;65381;51.254;15.592;2023-04-03T05:31:07;0.20;77.80
76537;DHT22;65381;51.254;15.592;2023-04-03T05:33:36;1.20;77.80
76537;DHT22;65381;51.254;15.592;2023-04-03T05:36:08;2.30;78.20
76537;DHT22;65381;51.254;15.592;2023-04-03T05:38:42;3.30;78.20
76537;DHT22;65381;51.254;15.592;2023-04-03T05:41:11;4.10;77.90
76537;DHT22;65381;51.254;15.592;2023-04-03T05:43:39;4.80;77.80
76537;DHT22;65381;51.254;15.592;2023-04-03T05:46:13;5.50;77.90
76537;DHT22;65381;51.254;15.592;2023-04-03T05:48:44;6.10;77.30
76537;DHT22;65381;51.254;15.592;2023-04-03T05:51:22;6.60;77.00
76537;DHT22;65381;51.254;15.592;2023-04-03T05:53:59;7.20;76.70
76537;DHT22;65381;51.254;15.592;2023-04-03T05:56:29;7.40;75.00
76537;DHT22;65381;51.254;15.592;2023-04-03T05:58:58;7.70;75.60
76537;DHT22;65381;51.254;15.592;2023-04-03T06:01:26;8.00;74.00
76537;DHT22;65381;51.254;15.592;2023-04-03T06:03:56;7.80;71.50
76537;DHT22;65381;51.254;15.592;2023-04-03T06:06:56;7.50;73.00
76537;DHT22;65381;51.254;15.592;2023-04-03T06:09:28;7.50;71.70
76537;DHT22;65381;51.254;15.592;2023-04-03T06:11:59;7.50;72.60
76537;DHT22;65381;51.254;15.592;2023-04-03T06:14:29;7.80;72.70
76537;DHT22;65381;51.254;15.592;2023-04-03T06:16:57;8.00;72.50
76537;DHT22;65381;51.254;15.592;2023-04-03T06:19:25;8.60;72.60
76537;DHT22;65381;51.254;15.592;2023-04-03T06:21:55;9.40;71.40
76537;DHT22;65381;51.254;15.592;2023-04-03T06:24:26;9.00;67.20
76537;DHT22;65381;51.254;15.592;2023-04-03T06:26:54;8.40;69.10
76537;DHT22;65381;51.254;15.592;2023-04-03T06:29:22;8.10;69.50
76537;DHT22;65381;51.254;15.592;2023-04-03T06:31:51;8.50;71.80
76537;DHT22;65381;51.254;15.592;2023-04-03T06:34:19;9.60;71.00
76537;DHT22;65381;51.254;15.592;2023-04-03T06:36:47;10.00;68.30
76537;DHT22;65381;51.254;15.592;2023-04-03T06:39:19;9.70;64.70
76537;DHT22;65381;51.254;15.592;2023-04-03T06:41:49;9.70;67.20
76537;DHT22;65381;51.254;15.592;2023-04-03T06:44:26;10.80;68.30
76537;DHT22;65381;51.254;15.592;2023-04-03T06:46:53;11.90;67.50
76537;DHT22;65381;51.254;15.592;2023-04-03T06:49:22;12.10;63.90
76537;DHT22;65381;51.254;15.592;2023-04-03T06:51:49;11.50;61.90
76537;DHT22;65381;51.254;15.592;2023-04-03T06:54:18;10.90;63.50
76537;DHT22;65381;51.254;15.592;2023-04-03T06:56:46;11.20;65.30
76537;DHT22;65381;51.254;15.592;2023-04-03T06:59:14;12.00;63.90
76537;DHT22;65381;51.254;15.592;2023-04-03T07:01:42;12.70;63.30
76537;DHT22;65381;51.254;15.592;2023-04-03T07:04:10;12.80;62.50
76537;DHT22;65381;51.254;15.592;2023-04-03T07:06:38;13.00;62.70
76537;DHT22;65381;51.254;15.592;2023-04-03T07:09:06;13.30;61.70
76537;DHT22;65381;51.254;15.592;2023-04-03T07:11:35;13.30;61.80
76537;DHT22;65381;51.254;15.592;2023-04-03T07:14:04;14.00;62.90
76537;DHT22;65381;51.254;15.592;2023-04-03T07:16:35;14.90;61.40
76537;DHT22;65381;51.254;15.592;2023-04-03T07:19:07;15.00;58.20
76537;DHT22;65381;51.254;15.592;2023-04-03T07:21:36;14.30;57.70
76537;DHT22;65381;51.254;15.592;2023-04-03T07:24:05;14.10;59.50
76537;DHT22;65381;51.254;15.592;2023-04-03T07:26:36;14.60;59.50
76537;DHT22;65381;51.254;15.592;2023-04-03T07:29:04;14.90;57.60
76537;DHT22;65381;51.254;15.592;2023-04-03T07:31:32;14.90;57.90
76537;DHT22;65381;51.254;15.592;2023-04-03T07:34:02;15.50;57.60
76537;DHT22;65381;51.254;15.592;2023-04-03T07:36:31;15.80;57.10
76537;DHT22;65381;51.254;15.592;2023-04-03T07:39:01;15.90;56.60
76537;DHT22;65381;51.254;15.592;2023-04-03T07:41:29;16.10;55.40
76537;DHT22;65381;51.254;15.592;2023-04-03T07:43:58;15.30;53.20
76537;DHT22;65381;51.254;15.592;2023-04-03T07:46:26;14.20;53.90
76537;DHT22;65381;51.254;15.592;2023-04-03T07:48:54;13.30;55.30
76537;DHT22;65381;51.254;15.592;2023-04-03T07:51:24;13.10;56.10
76537;DHT22;65381;51.254;15.592;2023-04-03T07:53:54;13.50;57.10
76537;DHT22;65381;51.254;15.592;2023-04-03T07:56:22;13.90;55.20
76537;DHT22;65381;51.254;15.592;2023-04-03T07:58:50;13.60;55.50
76537;DHT22;65381;51.254;15.592;2023-04-03T08:01:18;14.40;56.30
76537;DHT22;65381;51.254;15.592;2023-04-03T08:03:46;15.70;55.90
76537;DHT22;65381;51.254;15.592;2023-04-03T08:06:15;16.90;53.60
76537;DHT22;65381;51.254;15.592;2023-04-03T08:08:48;17.40;50.50
76537;DHT22;65381;51.254;15.592;2023-04-03T08:11:16;17.20;50.90
76537;DHT22;65381;51.254;15.592;2023-04-03T08:13:44;17.20;51.40
76537;DHT22;65381;51.254;15.592;2023-04-03T08:16:15;17.60;51.30
76537;DHT22;65381;51.254;15.592;2023-04-03T08:18:44;17.60;45.80
76537;DHT22;65381;51.254;15.592;2023-04-03T08:21:12;15.60;46.20
76537;DHT22;65381;51.254;15.592;2023-04-03T08:23:41;13.50;47.40
76537;DHT22;65381;51.254;15.592;2023-04-03T08:26:14;11.70;49.20
76537;DHT22;65381;51.254;15.592;2023-04-03T08:28:43;10.80;48.60
76537;DHT22;65381;51.254;15.592;2023-04-03T08:31:14;10.40;49.60
76537;DHT22;65381;51.254;15.592;2023-04-03T08:33:43;10.70;47.80
76537;DHT22;65381;51.254;15.592;2023-04-03T08:36:30;10.90;46.90
76537;DHT22;65381;51.254;15.592;2023-04-03T08:38:58;10.60;45.60
76537;DHT22;65381;51.254;15.592;2023-04-03T08:41:39;9.50;46.20
76537;DHT22;65381;51.254;15.592;2023-04-03T08:49:46;6.60;48.30
76537;DHT22;65381;51.254;15.592;2023-04-03T08:55:03;5.80;49.90
76537;DHT22;65381;51.254;15.592;2023-04-03T08:57:33;5.80;50.00
76537;DHT22;65381;51.254;15.592;2023-04-03T09:02:54;6.00;50.80
76537;DHT22;65381;51.254;15.592;2023-04-03T09:16:59;8.10;46.80
76537;DHT22;65381;51.254;15.592;2023-04-03T09:22:26;6.90;47.90
76537;DHT22;65381;51.254;15.592;2023-04-03T09:25:13;6.30;48.50
76537;DHT22;65381;51.254;15.592;2023-04-03T09:27:43;7.00;50.60
76537;DHT22;65381;51.254;15.592;2023-04-03T09:30:23;8.40;48.20
76537;DHT22;65381;51.254;15.592;2023-04-03T09:32:54;9.20;48.60
76537;DHT22;65381;51.254;15.592;2023-04-03T09:40:44;9.30;45.80
76537;DHT22;65381;51.254;15.592;2023-04-03T09:43:26;8.90;46.20
76537;DHT22;65381;51.254;15.592;2023-04-03T09:45:56;9.10;45.70
76537;DHT22;65381;51.254;15.592;2023-04-03T09:48:25;9.40;43.20
76537;DHT22;65381;51.254;15.592;2023-04-03T09:51:00;8.90;43.70
76537;DHT22;65381;51.254;15.592;2023-04-03T09:53:36;9.00;44.40
76537;DHT22;65381;51.254;15.592;2023-04-03T10:04:12;11.70;44.30
76537;DHT22;65381;51.254;15.592;2023-04-03T10:06:51;12.30;45.20
76537;DHT22;65381;51.254;15.592;2023-04-03T10:09:25;13.70;44.60
76537;DHT22;65381;51.254;15.592;2023-04-03T10:12:20;13.60;43.70
76537;DHT22;65381;51.254;15.592;2023-04-03T10:26:02;7.80;44.90
76537;DHT22;65381;51.254;15.592;2023-04-03T10:28:48;8.10;45.20
76537;DHT22;65381;51.254;15.592;2023-04-03T10:31:38;8.20;44.00
76537;DHT22;65381;51.254;15.592;2023-04-03T10:34:35;8.40;43.40
76537;DHT22;65381;51.254;15.592;2023-04-03T10:37:30;8.30;43.60
76537;DHT22;65381;51.254;15.592;2023-04-03T10:40:33;9.40;42.80
76537;DHT22;65381;51.254;15.592;2023-04-03T10:46:23;8.70;43.50
76537;DHT22;65381;51.254;15.592;2023-04-03T10:52:24;8.00;43.70
76537;DHT22;65381;51.254;15.592;2023-04-03T10:57:42;9.60;45.20
76537;DHT22;65381;51.254;15.592;2023-04-03T11:00:31;12.20;41.70
76537;DHT22;65381;51.254;15.592;2023-04-03T11:03:16;12.50;41.40
76537;DHT22;65381;51.254;15.592;2023-04-03T11:05:48;13.50;41.90
76537;DHT22;65381;51.254;15.592;2023-04-03T11:10:51;13.70;41.40
76537;DHT22;65381;51.254;15.592;2023-04-03T11:16:00;14.30;42.60
76537;DHT22;65381;51.254;15.592;2023-04-03T11:21:48;13.50;42.20
76537;DHT22;65381;51.254;15.592;2023-04-03T11:24:27;12.00;42.00
76537;DHT22;65381;51.254;15.592;2023-04-03T11:26:58;10.50;42.30
76537;DHT22;65381;51.254;15.592;2023-04-03T11:29:36;9.50;43.30
76537;DHT22;65381;51.254;15.592;2023-04-03T11:34:56;8.40;44.30
76537;DHT22;65381;51.254;15.592;2023-04-03T11:37:48;8.00;44.90
76537;DHT22;65381;51.254;15.592;2023-04-03T11:40:35;8.10;45.40
76537;DHT22;65381;51.254;15.592;2023-04-03T11:45:55;12.10;42.90
76537;DHT22;65381;51.254;15.592;2023-04-03T11:50:56;12.50;39.40
76537;DHT22;65381;51.254;15.592;2023-04-03T11:53:38;12.50;39.80
76537;DHT22;65381;51.254;15.592;2023-04-03T12:01:55;11.40;41.40
76537;DHT22;65381;51.254;15.592;2023-04-03T12:04:26;10.40;42.00
76537;DHT22;65381;51.254;15.592;2023-04-03T12:10:01;11.80;42.90
76537;DHT22;65381;51.254;15.592;2023-04-03T12:12:35;12.00;42.40
76537;DHT22;65381;51.254;15.592;2023-04-03T12:17:50;10.50;42.90
76537;DHT22;65381;51.254;15.592;2023-04-03T12:20:56;9.70;43.20
76537;DHT22;65381;51.254;15.592;2023-04-03T12:26:01;8.80;44.40
76537;DHT22;65381;51.254;15.592;2023-04-03T12:28:37;10.20;44.30
76537;DHT22;65381;51.254;15.592;2023-04-03T12:31:09;12.30;43.80
76537;DHT22;65381;51.254;15.592;2023-04-03T12:36:38;12.70;40.30
76537;DHT22;65381;51.254;15.592;2023-04-03T12:39:21;11.40;40.40
76537;DHT22;65381;51.254;15.592;2023-04-03T12:42:37;10.20;41.50
76537;DHT22;65381;51.254;15.592;2023-04-03T12:45:20;9.20;42.20
76537;DHT22;65381;51.254;15.592;2023-04-03T12:47:52;8.60;42.30
76537;DHT22;65381;51.254;15.592;2023-04-03T12:50:33;8.10;42.60
76537;DHT22;65381;51.254;15.592;2023-04-03T12:53:12;7.80;42.70
76537;DHT22;65381;51.254;15.592;2023-04-03T12:55:42;7.40;42.90
76537;DHT22;65381;51.254;15.592;2023-04-03T12:58:22;7.10;43.30
76537;DHT22;65381;51.254;15.592;2023-04-03T13:01:11;7.60;43.20
76537;DHT22;65381;51.254;15.592;2023-04-03T13:03:40;8.60;43.40
76537;DHT22;65381;51.254;15.592;2023-04-03T13:06:23;9.60;41.50
76537;DHT22;65381;51.254;15.592;2023-04-03T13:09:00;9.60;40.30
76537;DHT22;65381;51.254;15.592;2023-04-03T13:11:38;9.00;41.00
76537;DHT22;65381;51.254;15.592;2023-04-03T13:14:22;8.80;41.60
76537;DHT22;65381;51.254;15.592;2023-04-03T13:19:27;8.20;41.50
76537;DHT22;65381;51.254;15.592;2023-04-03T13:24:32;7.60;42.10
76537;DHT22;65381;51.254;15.592;2023-04-03T13:27:04;7.40;42.50
76537;DHT22;65381;51.254;15.592;2023-04-03T13:29:35;7.20;42.60
76537;DHT22;65381;51.254;15.592;2023-04-03T13:32:04;7.00;42.70
76537;DHT22;65381;51.254;15.592;2023-04-03T13:34:41;6.70;43.00
76537;DHT22;65381;51.254;15.592;2023-04-03T13:37:25;6.80;44.10
76537;DHT22;65381;51.254;15.592;2023-04-03T13:40:03;8.00;44.60
76537;DHT22;65381;51.254;15.592;2023-04-03T13:43:03;9.40;43.90
76537;DHT22;65381;51.254;15.592;2023-04-03T13:45:33;10.00;43.00
76537;DHT22;65381;51.254;15.592;2023-04-03T13:48:17;10.00;42.60
76537;DHT22;65381;51.254;15.592;2023-04-03T13:53:22;8.60;42.40
76537;DHT22;65381;51.254;15.592;2023-04-03T13:58:34;7.20;43.30
76537;DHT22;65381;51.254;15.592;2023-04-03T14:01:25;6.70;43.70
76537;DHT22;65381;51.254;15.592;2023-04-03T14:04:01;6.50;44.20
76537;DHT22;65381;51.254;15.592;2023-04-03T14:06:37;6.70;44.60
76537;DHT22;65381;51.254;15.592;2023-04-03T14:09:05;7.40;44.90
76537;DHT22;65381;51.254;15.592;2023-04-03T14:11:35;7.80;43.70
76537;DHT22;65381;51.254;15.592;2023-04-03T14:14:14;7.80;43.40
76537;DHT22;65381;51.254;15.592;2023-04-03T14:16:46;7.50;43.20
76537;DHT22;65381;51.254;15.592;2023-04-03T14:19:19;7.30;43.30
76537;DHT22;65381;51.254;15.592;2023-04-03T14:21:49;7.10;43.50
76537;DHT22;65381;51.254;15.592;2023-04-03T14:24:18;6.90;43.60
76537;DHT22;65381;51.254;15.592;2023-04-03T14:26:48;6.50;43.70
76537;DHT22;65381;51.254;15.592;2023-04-03T14:29:17;6.10;44.00
76537;DHT22;65381;51.254;15.592;2023-04-03T14:31:46;6.00;44.20
76537;DHT22;65381;51.254;15.592;2023-04-03T14:34:17;5.90;44.30
76537;DHT22;65381;51.254;15.592;2023-04-03T14:36:45;5.70;44.40
76537;DHT22;65381;51.254;15.592;2023-04-03T14:39:18;5.60;44.40
76537;DHT22;65381;51.254;15.592;2023-04-03T14:41:47;5.50;44.40
76537;DHT22;65381;51.254;15.592;2023-04-03T14:44:15;5.50;44.70
76537;DHT22;65381;51.254;15.592;2023-04-03T14:46:44;5.80;45.00
76537;DHT22;65381;51.254;15.592;2023-04-03T14:49:27;6.40;44.90
76537;DHT22;65381;51.254;15.592;2023-04-03T14:51:58;6.90;44.70
76537;DHT22;65381;51.254;15.592;2023-04-03T14:54:27;7.20;44.60
76537;DHT22;65381;51.254;15.592;2023-04-03T14:56:59;7.50;44.50
76537;DHT22;65381;51.254;15.592;2023-04-03T14:59:29;7.70;44.40
76537;DHT22;65381;51.254;15.592;2023-04-03T15:01:58;7.60;43.70
76537;DHT22;65381;51.254;15.592;2023-04-03T15:04:26;7.20;43.90
76537;DHT22;65381;51.254;15.592;2023-04-03T15:06:55;7.00;44.20
76537;DHT22;65381;51.254;15.592;2023-04-03T15:09:26;6.90;44.40
76537;DHT22;65381;51.254;15.592;2023-04-03T15:11:57;6.80;44.60
76537;DHT22;65381;51.254;15.592;2023-04-03T15:14:24;6.80;44.60
76537;DHT22;65381;51.254;15.592;2023-04-03T15:17:05;6.70;44.50
76537;DHT22;65381;51.254;15.592;2023-04-03T15:19:37;6.50;43.90
76537;DHT22;65381;51.254;15.592;2023-04-03T15:22:06;6.20;44.00
76537;DHT22;65381;51.254;15.592;2023-04-03T15:24:34;5.90;44.20
76537;DHT22;65381;51.254;15.592;2023-04-03T15:27:03;5.80;44.30
76537;DHT22;65381;51.254;15.592;2023-04-03T15:29:30;5.60;44.40
76537;DHT22;65381;51.254;15.592;2023-04-03T15:31:59;5.50;44.50
76537;DHT22;65381;51.254;15.592;2023-04-03T15:34:28;5.40;44.70
76537;DHT22;65381;51.254;15.592;2023-04-03T15:36:57;5.30;44.80
76537;DHT22;65381;51.254;15.592;2023-04-03T15:39:26;5.30;44.90
76537;DHT22;65381;51.254;15.592;2023-04-03T15:41:54;5.30;45.00
76537;DHT22;65381;51.254;15.592;2023-04-03T15:44:22;5.10;45.10
76537;DHT22;65381;51.254;15.592;2023-04-03T15:46:50;5.00;45.20
76537;DHT22;65381;51.254;15.592;2023-04-03T15:49:19;5.00;45.40
76537;DHT22;65381;51.254;15.592;2023-04-03T15:51:48;5.10;45.40
76537;DHT22;65381;51.254;15.592;2023-04-03T15:54:16;5.20;45.40
76537;DHT22;65381;51.254;15.592;2023-04-03T15:56:45;5.30;45.40
76537;DHT22;65381;51.254;15.592;2023-04-03T15:59:13;5.30;45.50
76537;DHT22;65381;51.254;15.592;2023-04-03T16:01:42;5.30;45.50
76537;DHT22;65381;51.254;15.592;2023-04-03T16:04:10;5.30;45.50
76537;DHT22;65381;51.254;15.592;2023-04-03T16:06:39;5.30;45.50
76537;DHT22;65381;51.254;15.592;2023-04-03T16:09:08;5.20;45.50
76537;DHT22;65381;51.254;15.592;2023-04-03T16:11:36;5.10;45.70
76537;DHT22;65381;51.254;15.592;2023-04-03T16:14:07;5.00;45.60
76537;DHT22;65381;51.254;15.592;2023-04-03T16:16:36;4.70;45.60
76537;DHT22;65381;51.254;15.592;2023-04-03T16:19:05;4.50;45.90
76537;DHT22;65381;51.254;15.592;2023-04-03T16:21:34;4.40;46.20
76537;DHT22;65381;51.254;15.592;2023-04-03T16:24:03;4.30;46.40
76537;DHT22;65381;51.254;15.592;2023-04-03T16:26:32;4.20;46.60
76537;DHT22;65381;51.254;15.592;2023-04-03T16:29:00;4.10;46.90
76537;DHT22;65381;51.254;15.592;2023-04-03T16:31:28;4.00;47.10
76537;DHT22;65381;51.254;15.592;2023-04-03T16:33:58;4.00;47.10
76537;DHT22;65381;51.254;15.592;2023-04-03T16:36:28;4.00;47.10
76537;DHT22;65381;51.254;15.592;2023-04-03T16:38:56;3.90;47.10
76537;DHT22;65381;51.254;15.592;2023-04-03T16:41:25;3.90;47.10
76537;DHT22;65381;51.254;15.592;2023-04-03T16:43:54;3.90;47.10
76537;DHT22;65381;51.254;15.592;2023-04-03T16:46:22;3.90;47.10
76537;DHT22;65381;51.254;15.592;2023-04-03T16:48:50;3.90;47.20
76537;DHT22;65381;51.254;15.592;2023-04-03T16:51:19;3.90;47.20
76537;DHT22;65381;51.254;15.592;2023-04-03T16:53:49;3.90;47.20
76537;DHT22;65381;51.254;15.592;2023-04-03T16:56:20;3.80;47.20
76537;DHT22;65381;51.254;15.592;2023-04-03T16:58:49;3.80;47.20
76537;DHT22;65381;51.254;15.592;2023-04-03T17:01:19;3.70;47.30
76537;DHT22;65381;51.254;15.592;2023-04-03T17:03:48;3.70;47.30
76537;DHT22;65381;51.254;15.592;2023-04-03T17:06:18;3.70;47.30
76537;DHT22;65381;51.254;15.592;2023-04-03T17:08:49;3.70;47.30
76537;DHT22;65381;51.254;15.592;2023-04-03T17:11:27;3.70;47.30
76537;DHT22;65381;51.254;15.592;2023-04-03T17:13:56;3.60;47.30
76537;DHT22;65381;51.254;15.592;2023-04-03T17:16:26;3.60;47.40
76537;DHT22;65381;51.254;15.592;2023-04-03T17:18:55;3.60;47.50
76537;DHT22;65381;51.254;15.592;2023-04-03T17:21:24;3.60;47.40
76537;DHT22;65381;51.254;15.592;2023-04-03T17:23:59;3.60;47.40
76537;DHT22;65381;51.254;15.592;2023-04-03T17:26:29;3.60;47.50
76537;DHT22;65381;51.254;15.592;2023-04-03T17:28:58;3.60;47.50
76537;DHT22;65381;51.254;15.592;2023-04-03T17:31:26;3.50;47.50
76537;DHT22;65381;51.254;15.592;2023-04-03T17:33:56;3.50;47.50
76537;DHT22;65381;51.254;15.592;2023-04-03T17:36:25;3.50;47.60